createdAt,value
2022-12-28T00:03:57.505Z,5.90
2022-12-28T00:09:26.359Z,3.80
2022-12-28T00:14:51.602Z,5.88
2022-12-28T00:20:15.305Z,5.32
2022-12-28T00:25:38.221Z,5.13
2022-12-28T00:31:02.746Z,7.50
2022-12-28T00:37:10.691Z,7.63
2022-12-28T00:42:09.105Z,9.45
2022-12-28T00:47:35.690Z,10.38
2022-12-28T00:52:59.123Z,11.73
2022-12-28T00:58:22.143Z,11.73
2022-12-28T01:03:47.965Z,7.63
2022-12-28T01:09:11.143Z,3.90
2022-12-28T01:14:34.946Z,4.65
2022-12-28T01:20:00.689Z,6.10
2022-12-28T01:25:24.329Z,4.50
2022-12-28T01:30:47.987Z,5.03
2022-12-28T01:36:15.822Z,3.53
2022-12-28T01:41:41.677Z,10.32
2022-12-28T01:47:09.431Z,6.63
2022-12-28T01:52:44.705Z,9.35
2022-12-28T01:58:13.375Z,6.53
2022-12-28T02:03:37.304Z,3.05
2022-12-28T02:09:11.451Z,10.52
2022-12-28T02:14:35.764Z,9.37
2022-12-28T02:20:05.727Z,15.35
2022-12-28T02:26:32.441Z,12.05
2022-12-28T02:32:12.399Z,8.18
2022-12-28T02:37:45.866Z,11.18
2022-12-28T02:43:15.417Z,20.70
2022-12-28T02:49:01.807Z,18.55
2022-12-28T02:55:12.401Z,13.07
2022-12-28T03:00:54.167Z,18.55
2022-12-28T03:06:48.966Z,13.13
2022-12-28T03:12:20.743Z,18.23
2022-12-28T03:18:05.296Z,16.92
2022-12-28T03:23:49.703Z,12.57
2022-12-28T03:29:35.690Z,9.45
2022-12-28T03:34:59.954Z,9.50
2022-12-28T03:40:30.893Z,5.05
2022-12-28T03:45:58.688Z,5.70
2022-12-28T03:51:24.968Z,6.95
2022-12-28T03:56:57.821Z,6.78
2022-12-28T04:07:48.853Z,9.95
2022-12-28T04:13:13.984Z,17.73
2022-12-28T04:18:46.031Z,18.95
2022-12-28T04:24:10.066Z,11.48
2022-12-28T04:29:40.595Z,12.77
2022-12-28T04:35:20.040Z,6.55
2022-12-28T04:40:51.311Z,11.80
2022-12-28T04:46:21.979Z,11.85
2022-12-28T04:51:51.870Z,13.38
2022-12-28T04:57:21.296Z,9.73
2022-12-28T05:02:51.710Z,14.52
2022-12-28T05:08:20.565Z,13.35
2022-12-28T05:13:49.760Z,8.77
2022-12-28T05:19:19.811Z,20.77
2022-12-28T05:24:48.716Z,5.88
2022-12-28T05:30:17.754Z,11.95
2022-12-28T05:35:47.797Z,14.60
2022-12-28T05:41:18.408Z,11.65
2022-12-28T05:46:47.462Z,11.15
2022-12-28T05:52:17.489Z,20.57
2022-12-28T05:57:46.698Z,23.33
2022-12-28T06:03:15.617Z,25.93
2022-12-28T06:08:47.549Z,25.73
2022-12-28T06:14:16.604Z,15.38
2022-12-28T06:19:45.519Z,10.60
2022-12-28T06:25:15.923Z,10.57
2022-12-28T06:30:52.205Z,22.98
2022-12-28T06:36:23.889Z,11.80
2022-12-28T06:41:53.947Z,11.88
2022-12-28T06:47:23.583Z,11.32
2022-12-28T06:52:52.442Z,13.37
2022-12-28T06:58:23.128Z,8.48
2022-12-28T07:03:56.481Z,11.32
2022-12-28T07:09:25.348Z,21.13
2022-12-28T11:31:18.827Z,17.83
2022-12-28T11:36:45.027Z,21.27
2022-12-28T11:42:37.765Z,20.50
2022-12-28T11:48:40.803Z,16.35
2022-12-28T11:54:37.748Z,19.10
2022-12-28T12:00:49.151Z,12.95
2022-12-28T12:06:17.264Z,11.23
2022-12-28T12:11:47.668Z,19.67
2022-12-28T12:17:17.949Z,14.20
2022-12-28T12:22:52.067Z,11.55
2022-12-28T12:28:28.855Z,8.70
2022-12-28T12:34:05.070Z,7.32
2022-12-28T12:39:45.146Z,20.27
2022-12-28T12:45:19.054Z,9.32
2022-12-28T12:51:18.003Z,11.57
2022-12-28T12:56:55.329Z,11.73
2022-12-28T13:02:45.283Z,8.38
2022-12-28T13:08:22.646Z,13.38
2022-12-28T13:13:54.031Z,14.65
2022-12-28T13:19:25.475Z,8.93
2022-12-28T13:24:54.975Z,8.15
2022-12-28T13:30:22.838Z,9.73
2022-12-28T13:35:47.044Z,6.90
2022-12-28T13:41:24.950Z,11.50
2022-12-28T13:47:01.612Z,15.02
2022-12-28T13:52:35.384Z,16.67
2022-12-28T13:58:11.434Z,10.20
2022-12-28T14:03:46.434Z,14.27
2022-12-28T14:09:16.721Z,8.10
2022-12-28T14:14:46.343Z,11.18
2022-12-28T14:20:17.726Z,10.73
2022-12-28T14:25:46.596Z,11.10
2022-12-28T14:31:23.044Z,6.85
2022-12-28T14:36:55.660Z,10.93
2022-12-28T14:42:27.651Z,8.48
2022-12-28T14:47:57.468Z,20.60
2022-12-28T14:53:28.998Z,21.95
2022-12-28T14:59:01.212Z,12.68
2022-12-28T15:04:37.784Z,15.48
2022-12-28T15:10:09.410Z,26.02
2022-12-28T15:15:38.972Z,26.63
2022-12-28T15:21:08.332Z,6.23
2022-12-28T15:26:39.471Z,9.32
2022-12-28T15:32:08.972Z,9.35
2022-12-28T15:37:38.066Z,9.50
2022-12-28T15:43:08.227Z,12.87
2022-12-28T15:48:36.953Z,16.52
2022-12-28T15:54:05.962Z,9.27
2022-12-28T15:59:36.288Z,13.20
2022-12-28T16:05:05.085Z,11.88
2022-12-28T20:13:10.347Z,40.33
2022-12-28T20:18:39.729Z,52.60
2022-12-28T20:24:08.747Z,48.45
2022-12-28T20:29:38.919Z,43.78
2022-12-28T20:35:08.241Z,37.63
2022-12-28T20:40:33.819Z,30.30
2022-12-28T20:45:58.770Z,25.65
2022-12-28T20:51:22.844Z,23.83
2022-12-28T20:56:53.935Z,29.67
2022-12-28T21:02:25.098Z,27.00
2022-12-28T21:07:53.758Z,32.83
2022-12-28T21:13:21.941Z,27.02
2022-12-28T21:18:50.301Z,26.92
2022-12-28T21:24:19.114Z,28.15
2022-12-28T21:29:45.858Z,30.00
2022-12-28T21:35:16.398Z,30.17
2022-12-28T21:40:42.872Z,23.55
2022-12-28T21:46:13.213Z,30.58
2022-12-28T21:51:42.940Z,26.63
2022-12-28T21:57:07.161Z,20.35
2022-12-28T22:03:04.575Z,23.37
2022-12-28T22:08:47.546Z,24.17
2022-12-28T22:14:11.560Z,16.75
2022-12-28T22:19:37.069Z,29.88
2022-12-28T22:25:07.872Z,22.90
2022-12-28T22:30:38.761Z,19.92
2022-12-28T22:36:12.163Z,20.23
2022-12-28T22:41:42.294Z,24.67
2022-12-28T22:47:11.799Z,13.10
2022-12-28T22:52:35.298Z,23.90
2022-12-28T22:58:06.191Z,13.65
2022-12-28T23:03:32.408Z,17.30
2022-12-28T23:09:01.682Z,15.52
2022-12-28T23:14:44.849Z,13.15
2022-12-28T23:20:29.660Z,17.83
2022-12-28T23:26:19.148Z,17.20
2022-12-28T23:31:46.741Z,11.55
2022-12-28T23:37:15.755Z,13.40
2022-12-28T23:42:44.660Z,14.20
2022-12-28T23:48:12.356Z,16.40
2022-12-28T23:53:41.975Z,13.90
2022-12-28T23:59:10.918Z,10.77
